TimeEDT,TemperatureF,Dew PointF,Humidity,Sea Level PressureIn,VisibilityMPH,Wind Direction,Wind SpeedMPH,Gust SpeedMPH,PrecipitationIn,Events,Conditions,WindDirDegrees,DateUTC
12:01 AM,35.6,33.8,93,30.32,10.0,Calm,Calm,-,N/A,,Mostly Cloudy,0,2013-09-18 04:01:00
12:18 AM,35.6,35.6,100,30.32,10.0,Calm,Calm,-,N/A,,Scattered Clouds,0,2013-09-18 04:18:00
12:52 AM,34.0,33.1,96,30.34,10.0,Calm,Calm,-,N/A,,Mostly Cloudy,0,2013-09-18 04:52:00
1:01 AM,35.6,33.8,93,30.32,0.8,Calm,Calm,-,N/A,,Mist,0,2013-09-18 05:01:00
1:10 AM,33.8,33.8,100,30.31,0.2,Calm,Calm,-,N/A,Fog,Fog,0,2013-09-18 05:10:00
1:25 AM,35.6,35.6,100,30.31,0.5,SSW,3.5,-,N/A,Fog,Fog,200,2013-09-18 05:25:00
1:33 AM,33.8,33.8,100,30.31,0.2,Calm,Calm,-,N/A,Fog,Fog,0,2013-09-18 05:33:00
1:52 AM,35.1,34.0,96,30.33,0.2,Calm,Calm,-,0.00,Fog-Snow,Light Snow,0,2013-09-18 05:52:00
2:02 AM,33.8,33.8,100,30.31,1.0,Calm,Calm,-,0.00,,Mist,0,2013-09-18 06:02:00
2:04 AM,33.8,33.8,100,30.31,2.5,Calm,Calm,-,0.00,,Overcast,0,2013-09-18 06:04:00
2:11 AM,33.8,33.8,100,30.31,10.0,Calm,Calm,-,0.00,,Mostly Cloudy,0,2013-09-18 06:11:00
2:25 AM,33.8,32.0,93,30.31,1.0,Calm,Calm,-,0.00,,Mist,0,2013-09-18 06:25:00
2:29 AM,33.8,33.8,100,30.30,0.2,Calm,Calm,-,0.00,Fog,Fog,0,2013-09-18 06:29:00
2:52 AM,35.1,34.0,96,30.32,0.2,Calm,Calm,-,0.00,Fog,Fog,0,2013-09-18 06:52:00
3:52 AM,33.1,33.1,100,30.33,0.2,Calm,Calm,-,N/A,Fog,Fog,0,2013-09-18 07:52:00
4:52 AM,33.1,33.1,100,30.32,0.2,Calm,Calm,-,N/A,Fog,Fog,0,2013-09-18 08:52:00
5:10 AM,32.0,32.0,100,30.30,0.5,Calm,Calm,-,N/A,Fog,Fog,0,2013-09-18 09:10:00
5:18 AM,33.8,32.0,93,30.30,0.2,Calm,Calm,-,N/A,Fog,Fog,0,2013-09-18 09:18:00
5:27 AM,33.8,32.0,93,30.30,1.2,Calm,Calm,-,N/A,,Overcast,0,2013-09-18 09:27:00
5:29 AM,33.8,32.0,93,30.30,3.0,Calm,Calm,-,N/A,,Overcast,0,2013-09-18 09:29:00
5:41 AM,32.0,30.2,93,30.31,1.5,Calm,Calm,-,N/A,,Overcast,0,2013-09-18 09:41:00
5:43 AM,32.0,30.2,93,30.31,0.8,Calm,Calm,-,N/A,,Mist,0,2013-09-18 09:43:00
5:52 AM,32.0,32.0,100,30.33,0.2,Calm,Calm,-,N/A,Fog,Fog,0,2013-09-18 09:52:00
6:52 AM,32.0,30.9,96,30.34,0.2,Calm,Calm,-,N/A,Fog,Fog,0,2013-09-18 10:52:00
7:17 AM,33.8,32.0,93,30.31,2.0,Calm,Calm,-,N/A,,Mostly Cloudy,0,2013-09-18 11:17:00
7:23 AM,33.8,33.8,100,30.31,10.0,Calm,Calm,-,N/A,,Scattered Clouds,0,2013-09-18 11:23:00
7:47 AM,35.6,35.6,100,30.31,1.0,Calm,Calm,-,N/A,,Mist,0,2013-09-18 11:47:00
7:52 AM,36.0,36.0,100,30.34,0.5,Calm,Calm,-,N/A,Fog,Fog,0,2013-09-18 11:52:00
7:58 AM,35.6,35.6,100,30.30,1.5,Calm,Calm,-,N/A,,Mostly Cloudy,0,2013-09-18 11:58:00
8:00 AM,35.6,35.6,100,30.30,5.0,Calm,Calm,-,N/A,,Mostly Cloudy,0,2013-09-18 12:00:00
8:09 AM,37.4,35.6,93,30.30,1.8,Calm,Calm,-,N/A,,Mostly Cloudy,0,2013-09-18 12:09:00
8:25 AM,39.2,37.4,93,30.30,3.0,Calm,Calm,-,N/A,,Mostly Cloudy,0,2013-09-18 12:25:00
8:35 AM,39.2,39.2,100,30.30,10.0,Calm,Calm,-,N/A,,Scattered Clouds,0,2013-09-18 12:35:00
8:52 AM,43.0,39.9,89,30.32,10.0,Calm,Calm,-,N/A,,Clear,0,2013-09-18 12:52:00
9:52 AM,55.0,44.1,67,30.30,10.0,Calm,Calm,-,N/A,,Clear,0,2013-09-18 13:52:00
10:52 AM,63.0,42.1,46,30.28,10.0,Variable,3.5,-,N/A,,Clear,0,2013-09-18 14:52:00
11:52 AM,64.0,39.9,41,30.26,10.0,Variable,6.9,-,N/A,,Clear,0,2013-09-18 15:52:00
12:52 PM,66.0,39.9,38,30.24,10.0,Variable,4.6,-,N/A,,Clear,0,2013-09-18 16:52:00
1:52 PM,69.1,43.0,39,30.20,10.0,West,4.6,-,N/A,,Clear,280,2013-09-18 17:52:00
2:52 PM,70.0,43.0,38,30.19,10.0,Variable,5.8,-,N/A,,Clear,0,2013-09-18 18:52:00
3:52 PM,70.0,43.0,38,30.17,10.0,Variable,5.8,-,N/A,,Clear,0,2013-09-18 19:52:00
4:52 PM,69.1,43.0,39,30.15,10.0,WSW,5.8,-,N/A,,Clear,240,2013-09-18 20:52:00
5:52 PM,66.9,44.1,44,30.15,10.0,Calm,Calm,-,N/A,,Clear,0,2013-09-18 21:52:00
6:52 PM,55.9,50.0,80,30.16,10.0,Calm,Calm,-,N/A,,Clear,0,2013-09-18 22:52:00
7:52 PM,48.9,46.0,90,30.17,10.0,Calm,Calm,-,N/A,,Clear,0,2013-09-18 23:52:00
8:52 PM,44.1,43.0,96,30.17,10.0,Calm,Calm,-,N/A,,Clear,0,2013-09-19 00:52:00
9:52 PM,42.1,41.0,96,30.17,10.0,Calm,Calm,-,N/A,,Clear,0,2013-09-19 01:52:00
10:52 PM,39.9,39.0,97,30.16,10.0,Calm,Calm,-,N/A,,Clear,0,2013-09-19 02:52:00
11:32 PM,39.2,37.4,93,30.14,10.0,Calm,Calm,-,N/A,,Scattered Clouds,0,2013-09-19 03:32:00
11:40 PM,39.2,37.4,93,30.15,2.5,Calm,Calm,-,N/A,,Mostly Cloudy,0,2013-09-19 03:40:00
11:47 PM,39.2,37.4,93,30.15,1.5,Calm,Calm,-,N/A,,Mostly Cloudy,0,2013-09-19 03:47:00
11:52 PM,37.9,37.0,97,30.17,7.0,Calm,Calm,-,N/A,,Mostly Cloudy,0,2013-09-19 03:52:00